Time;durP1;ratioP1;P1;durP2;ratioP2;P2;SDS_P1;SDS_P2;PMS_P1;PMS_P2;Temp;Humidity;BMP_temperature;BMP_pressure;BME280_temperature;BME280_humidity;BME280_pressure;Samples;Min_cycle;Max_cycle;Signal;HPM_P1;HPM_P2
2024/01/17 00:00:04;;;;;;;15.50;7.65;;;;;;;;;;5070054;28;20032;-84
2024/01/17 00:02:30;;;;;;;11.43;6.75;;;;;;;;;;5070347;28;20029;-83
2024/01/17 00:04:56;;;;;;;10.05;6.40;;;;;;;;;;5071055;28;20028;-87
2024/01/17 00:07:24;;;;;;;9.00;6.80;;;;;;;;;;5068908;28;20028;-87
2024/01/17 00:09:50;;;;;;;11.57;6.43;;;;;;;;;;5070053;28;20094;-83
2024/01/17 00:12:16;;;;;;;10.43;7.30;;;;;;;;;;5069469;28;20469;-88
2024/01/17 00:14:42;;;;;;;9.05;6.18;;;;;;;;;;5068659;28;20029;-86
2024/01/17 00:17:08;;;;;;;8.23;6.07;;;;;;;;;;5070140;28;20024;-86
2024/01/17 00:19:35;;;;;;;8.25;5.80;;;;;;;;;;5069682;28;20035;-82
2024/01/17 00:22:01;;;;;;;8.65;6.53;;;;;;;;;;5069666;28;20031;-82
2024/01/17 00:24:27;;;;;;;10.13;7.13;;;;;;;;;;5069372;28;20028;-82
2024/01/17 00:26:53;;;;;;;11.40;7.40;;;;;;;;;;5069871;28;20021;-84
2024/01/17 00:29:19;;;;;;;9.23;5.78;;;;;;;;;;5069466;28;20049;-85
2024/01/17 00:31:45;;;;;;;10.65;6.80;;;;;;;;;;5069743;28;20028;-82
2024/01/17 00:34:11;;;;;;;9.70;7.00;;;;;;;;;;5069559;28;20036;-84
2024/01/17 00:36:37;;;;;;;9.35;6.65;;;;;;;;;;5085200;28;20027;-82
2024/01/17 00:39:03;;;;;;;9.68;6.10;;;;;;;;;;5089713;28;20038;-85
2024/01/17 00:41:29;;;;;;;7.18;5.22;;;;;;;;;;5090719;28;20105;-83
2024/01/17 00:43:55;;;;;;;8.13;5.43;;;;;;;;;;5090498;28;20070;-90
2024/01/17 00:46:21;;;;;;;7.43;5.75;;;;;;;;;;5089896;28;20036;-84
2024/01/17 00:48:47;;;;;;;8.30;6.22;;;;;;;;;;5090032;28;20115;-87
2024/01/17 00:51:23;;;;;;;6.88;5.53;;;;;;;;;;5076972;28;20492;-89
2024/01/17 00:53:49;;;;;;;8.30;5.65;;;;;;;;;;5069388;28;20036;-87
2024/01/17 00:56:15;;;;;;;7.05;5.65;;;;;;;;;;5069468;28;20528;-84
2024/01/17 00:58:41;;;;;;;8.32;5.88;;;;;;;;;;5069414;28;20032;-84
2024/01/17 01:01:07;;;;;;;7.55;5.40;;;;;;;;;;5069342;28;20029;-88
2024/01/17 01:03:32;;;;;;;11.27;7.97;;;;;;;;;;5069230;28;20024;-84
2024/01/17 01:05:58;;;;;;;8.20;5.35;;;;;;;;;;5070002;28;20048;-84
2024/01/17 01:08:24;;;;;;;8.93;6.07;;;;;;;;;;5067681;28;20094;-90
2024/01/17 01:10:51;;;;;;;10.55;7.60;;;;;;;;;;5069249;28;20021;-85
2024/01/17 01:13:17;;;;;;;9.95;7.38;;;;;;;;;;5069225;28;20060;-84
2024/01/17 01:15:42;;;;;;;8.82;6.65;;;;;;;;;;5069118;28;20024;-90
2024/01/17 01:18:09;;;;;;;7.97;5.63;;;;;;;;;;5069144;28;20024;-88
2024/01/17 01:20:35;;;;;;;6.90;5.28;;;;;;;;;;5068814;28;20103;-88
2024/01/17 01:23:01;;;;;;;8.15;6.43;;;;;;;;;;5069388;28;20491;-87
2024/01/17 01:25:27;;;;;;;7.10;5.35;;;;;;;;;;5072110;28;20103;-88
2024/01/17 01:27:53;;;;;;;6.18;4.75;;;;;;;;;;5072775;28;20224;-84
2024/01/17 01:30:19;;;;;;;7.35;6.03;;;;;;;;;;5072651;28;20492;-88
2024/01/17 01:32:45;;;;;;;6.80;5.13;;;;;;;;;;5072391;28;20032;-89
2024/01/17 01:35:11;;;;;;;5.97;4.65;;;;;;;;;;5075536;28;20480;-87
2024/01/17 01:37:37;;;;;;;5.97;4.45;;;;;;;;;;5093492;28;20034;-85
2024/01/17 01:40:04;;;;;;;6.53;5.10;;;;;;;;;;5093799;28;20035;-84
2024/01/17 01:42:30;;;;;;;6.75;4.85;;;;;;;;;;5094165;28;20102;-84
2024/01/17 01:44:56;;;;;;;5.90;4.30;;;;;;;;;;5093232;28;20024;-85
2024/01/17 01:47:22;;;;;;;7.28;4.20;;;;;;;;;;5091836;28;20035;-89
2024/01/17 01:49:48;;;;;;;5.38;4.28;;;;;;;;;;5093066;28;20016;-85
2024/01/17 01:52:17;;;;;;;5.40;4.40;;;;;;;;;;5091297;28;20028;-89
2024/01/17 01:54:44;;;;;;;5.18;4.28;;;;;;;;;;5093261;28;20111;-88
2024/01/17 01:57:10;;;;;;;4.15;3.65;;;;;;;;;;5092935;28;20063;-86
2024/01/17 01:59:36;;;;;;;4.40;3.78;;;;;;;;;;5093002;28;20020;-85
2024/01/17 02:02:04;;;;;;;4.25;3.85;;;;;;;;;;5093802;28;20020;-88
2024/01/17 02:04:32;;;;;;;7.82;3.90;;;;;;;;;;5093913;28;20024;-88
2024/01/17 02:06:59;;;;;;;4.90;3.88;;;;;;;;;;5090663;28;20438;-86
2024/01/17 02:09:26;;;;;;;6.43;4.82;;;;;;;;;;5072482;28;20078;-90
2024/01/17 02:11:52;;;;;;;4.22;3.83;;;;;;;;;;5072350;28;20056;-84
2024/01/17 02:14:19;;;;;;;4.38;3.83;;;;;;;;;;5072304;28;20488;-87
2024/01/17 02:16:46;;;;;;;4.60;3.67;;;;;;;;;;5071285;28;20366;-86
2024/01/17 02:19:16;;;;;;;5.22;4.10;;;;;;;;;;5072201;28;20020;-89
2024/01/17 02:21:42;;;;;;;4.28;3.70;;;;;;;;;;5072212;28;20025;-87
2024/01/17 02:24:28;;;;;;;6.43;4.35;;;;;;;;;;5072231;28;20032;-90
2024/01/17 02:26:57;;;;;;;5.95;4.32;;;;;;;;;;5070130;28;20035;-90
2024/01/17 02:29:23;;;;;;;5.80;4.13;;;;;;;;;;5072474;28;20033;-85
2024/01/17 02:31:50;;;;;;;6.43;4.40;;;;;;;;;;5092302;28;20059;-86
2024/01/17 02:34:16;;;;;;;6.13;4.47;;;;;;;;;;5092155;28;20106;-88
2024/01/17 02:36:42;;;;;;;7.47;4.60;;;;;;;;;;5091978;28;20031;-84
2024/01/17 02:39:09;;;;;;;7.82;5.65;;;;;;;;;;5092303;28;20023;-86
2024/01/17 02:41:35;;;;;;;6.40;4.45;;;;;;;;;;5091360;28;20052;-88
2024/01/17 02:44:01;;;;;;;6.05;4.75;;;;;;;;;;5092072;28;20081;-88
2024/01/17 02:46:28;;;;;;;5.78;4.03;;;;;;;;;;5092173;28;20333;-86
2024/01/17 02:48:54;;;;;;;5.18;3.83;;;;;;;;;;5092011;28;20498;-86
2024/01/17 02:51:20;;;;;;;9.43;5.63;;;;;;;;;;5091867;28;20028;-85
2024/01/17 02:53:46;;;;;;;8.35;4.97;;;;;;;;;;5091862;28;20032;-84
2024/01/17 02:56:14;;;;;;;15.68;8.27;;;;;;;;;;5086493;28;20143;-84
2024/01/17 02:58:40;;;;;;;7.05;5.40;;;;;;;;;;5082562;28;20035;-83
2024/01/17 03:01:06;;;;;;;6.50;4.93;;;;;;;;;;5072130;28;20097;-87
2024/01/17 03:03:32;;;;;;;5.57;3.88;;;;;;;;;;5071596;28;20030;-89
2024/01/17 03:05:58;;;;;;;5.80;4.32;;;;;;;;;;5071313;28;20371;-84
2024/01/17 03:08:24;;;;;;;6.10;4.88;;;;;;;;;;5071378;28;20510;-87
2024/01/17 03:10:50;;;;;;;8.10;4.97;;;;;;;;;;5071399;28;20020;-88
2024/01/17 03:13:16;;;;;;;4.97;3.88;;;;;;;;;;5071103;28;20033;-90
2024/01/17 03:15:43;;;;;;;5.75;3.95;;;;;;;;;;5071510;28;20381;-84
2024/01/17 03:18:13;;;;;;;3.22;2.90;;;;;;;;;;5072139;28;20021;-83
2024/01/17 03:20:40;;;;;;;4.65;3.47;;;;;;;;;;5072112;28;20103;-83
2024/01/17 03:23:06;;;;;;;4.18;3.47;;;;;;;;;;5072193;28;20059;-85
2024/01/17 03:25:33;;;;;;;7.30;4.03;;;;;;;;;;5071394;28;20029;-88
2024/01/17 03:27:59;;;;;;;3.38;3.08;;;;;;;;;;5070287;28;20047;-89
2024/01/17 03:30:24;;;;;;;3.75;2.58;;;;;;;;;;5069303;28;20404;-84
2024/01/17 03:32:50;;;;;;;2.65;2.45;;;;;;;;;;5069667;28;20028;-85
2024/01/17 03:35:16;;;;;;;2.90;2.55;;;;;;;;;;5070830;28;20082;-84
2024/01/17 03:37:42;;;;;;;2.60;2.40;;;;;;;;;;5069526;28;20024;-88
2024/01/17 03:40:09;;;;;;;2.30;2.10;;;;;;;;;;5071327;28;20480;-84
2024/01/17 03:42:35;;;;;;;3.08;2.30;;;;;;;;;;5070262;28;20166;-87
2024/01/17 03:45:01;;;;;;;2.40;2.20;;;;;;;;;;5070344;28;20099;-87
2024/01/17 03:47:27;;;;;;;2.47;2.25;;;;;;;;;;5069797;28;20075;-87
2024/01/17 03:49:52;;;;;;;2.35;2.15;;;;;;;;;;5070114;28;20519;-87
2024/01/17 03:52:19;;;;;;;2.53;2.33;;;;;;;;;;5070371;28;20028;-85
2024/01/17 03:54:45;;;;;;;2.50;2.30;;;;;;;;;;5068864;28;20028;-84
2024/01/17 03:57:11;;;;;;;2.38;2.17;;;;;;;;;;5070041;28;20028;-83
2024/01/17 03:59:37;;;;;;;4.00;2.13;;;;;;;;;;5071144;28;20046;-85
2024/01/17 04:02:03;;;;;;;2.10;1.90;;;;;;;;;;5070209;28;20107;-85
2024/01/17 04:04:29;;;;;;;2.38;2.15;;;;;;;;;;5068890;28;20027;-84
2024/01/17 04:06:55;;;;;;;1.90;1.80;;;;;;;;;;5070235;28;20460;-88
2024/01/17 04:09:21;;;;;;;2.00;1.90;;;;;;;;;;5070005;28;20548;-86
2024/01/17 04:11:47;;;;;;;2.65;1.90;;;;;;;;;;5069144;28;20087;-85
2024/01/17 04:14:13;;;;;;;1.90;1.80;;;;;;;;;;5069744;28;20500;-88
2024/01/17 04:16:39;;;;;;;1.95;1.85;;;;;;;;;;5070982;28;20024;-86
2024/01/17 04:19:06;;;;;;;1.83;1.73;;;;;;;;;;5069493;28;21671;-88
2024/01/17 04:21:32;;;;;;;1.90;1.80;;;;;;;;;;5069425;28;20657;-87
2024/01/17 04:23:58;;;;;;;2.00;1.90;;;;;;;;;;5069400;28;20064;-87
2024/01/17 04:26:25;;;;;;;2.95;1.80;;;;;;;;;;5069147;28;20488;-87
2024/01/17 04:28:51;;;;;;;2.25;2.05;;;;;;;;;;5068579;28;20033;-88
2024/01/17 04:31:27;;;;;;;2.00;1.90;;;;;;;;;;5069170;28;20017;-88
2024/01/17 04:33:55;;;;;;;2.03;1.73;;;;;;;;;;5067105;28;20558;-85
2024/01/17 04:36:22;;;;;;;1.70;1.60;;;;;;;;;;5072126;28;20013;-88
2024/01/17 04:38:48;;;;;;;1.80;1.70;;;;;;;;;;5067605;28;20028;-87
2024/01/17 04:41:15;;;;;;;1.73;1.63;;;;;;;;;;5067558;28;20079;-85
2024/01/17 04:43:41;;;;;;;1.88;1.77;;;;;;;;;;5068711;28;20086;-88
2024/01/17 04:46:14;;;;;;;2.00;1.90;;;;;;;;;;5068318;28;20025;-88
2024/01/17 04:48:41;;;;;;;2.15;1.95;;;;;;;;;;5069008;28;20510;-85
2024/01/17 04:51:08;;;;;;;3.45;2.20;;;;;;;;;;5067969;28;20031;-88
2024/01/17 04:53:34;;;;;;;3.05;2.40;;;;;;;;;;5067814;28;20108;-88
2024/01/17 04:56:02;;;;;;;2.55;2.35;;;;;;;;;;5068996;28;20027;-85
2024/01/17 04:58:28;;;;;;;5.10;3.40;;;;;;;;;;5068888;28;20027;-84
2024/01/17 05:00:54;;;;;;;2.50;2.20;;;;;;;;;;5069029;28;20025;-86
2024/01/17 05:03:20;;;;;;;2.97;2.45;;;;;;;;;;5068551;28;20028;-87
2024/01/17 05:05:46;;;;;;;2.15;2.05;;;;;;;;;;5067660;28;20503;-85
2024/01/17 05:08:13;;;;;;;2.00;1.90;;;;;;;;;;5070043;28;20043;-85
2024/01/17 05:10:43;;;;;;;2.50;2.30;;;;;;;;;;5067741;28;20020;-87
2024/01/17 05:13:09;;;;;;;2.92;2.63;;;;;;;;;;5068566;28;20060;-83
2024/01/17 05:15:35;;;;;;;2.13;1.92;;;;;;;;;;5066840;28;20076;-85
2024/01/17 05:18:01;;;;;;;2.10;1.85;;;;;;;;;;5067361;28;20024;-85
2024/01/17 05:20:27;;;;;;;2.47;2.20;;;;;;;;;;5067917;28;20725;-89
2024/01/17 05:22:53;;;;;;;1.77;1.67;;;;;;;;;;5069098;28;20021;-84
2024/01/17 05:25:19;;;;;;;1.95;1.80;;;;;;;;;;5068945;28;20017;-86
2024/01/17 05:27:51;;;;;;;1.75;1.65;;;;;;;;;;5069644;28;20031;-88
2024/01/17 05:30:18;;;;;;;2.10;2.00;;;;;;;;;;5068024;28;20116;-88
2024/01/17 05:32:44;;;;;;;2.85;2.22;;;;;;;;;;5068644;28;20136;-85
2024/01/17 05:35:10;;;;;;;1.77;1.67;;;;;;;;;;5065305;28;20552;-87
2024/01/17 05:37:41;;;;;;;3.10;2.90;;;;;;;;;;5048906;28;20100;-84
2024/01/17 05:40:08;;;;;;;3.35;2.30;;;;;;;;;;5071738;28;20701;-83
2024/01/17 05:42:34;;;;;;;2.13;1.80;;;;;;;;;;5068750;28;20032;-82
2024/01/17 05:45:01;;;;;;;2.75;2.55;;;;;;;;;;5067190;28;20050;-83
2024/01/17 05:47:27;;;;;;;1.90;1.80;;;;;;;;;;5068812;28;20042;-85
2024/01/17 05:49:53;;;;;;;1.90;1.80;;;;;;;;;;5068681;28;20024;-83
2024/01/17 05:52:19;;;;;;;2.65;1.80;;;;;;;;;;5078259;28;20412;-82
2024/01/17 05:54:45;;;;;;;1.80;1.70;;;;;;;;;;5069304;28;20020;-84
2024/01/17 05:57:11;;;;;;;1.77;1.67;;;;;;;;;;5068540;28;20043;-88
2024/01/17 05:59:37;;;;;;;1.70;1.60;;;;;;;;;;5067373;28;20028;-85
2024/01/17 06:02:03;;;;;;;2.15;1.83;;;;;;;;;;5068675;28;20466;-84
2024/01/17 06:04:30;;;;;;;2.15;1.80;;;;;;;;;;5067581;28;20013;-87
2024/01/17 06:06:56;;;;;;;1.85;1.75;;;;;;;;;;5068612;28;20032;-85
2024/01/17 06:09:22;;;;;;;1.90;1.80;;;;;;;;;;5068659;28;20025;-90
2024/01/17 06:11:48;;;;;;;2.03;1.80;;;;;;;;;;5071470;28;20029;-85
2024/01/17 06:14:14;;;;;;;1.92;1.70;;;;;;;;;;5073026;28;20036;-90
2024/01/17 06:16:40;;;;;;;1.77;1.67;;;;;;;;;;5070772;28;20028;-85
2024/01/17 06:19:06;;;;;;;2.17;1.98;;;;;;;;;;5070855;28;20494;-90
2024/01/17 06:21:32;;;;;;;2.60;1.90;;;;;;;;;;5077486;28;20022;-89
2024/01/17 06:24:01;;;;;;;2.78;1.90;;;;;;;;;;5092268;28;20402;-85
2024/01/17 06:26:27;;;;;;;3.08;2.00;;;;;;;;;;5092114;28;20400;-85
2024/01/17 06:28:53;;;;;;;2.00;1.90;;;;;;;;;;5090561;28;20032;-84
2024/01/17 06:31:24;;;;;;;2.13;2.00;;;;;;;;;;5092774;28;20024;-85
2024/01/17 06:33:50;;;;;;;1.80;1.70;;;;;;;;;;5091931;28;20093;-82
2024/01/17 06:36:17;;;;;;;2.50;2.30;;;;;;;;;;5092675;28;20103;-83
2024/01/17 06:38:43;;;;;;;2.33;2.13;;;;;;;;;;5085675;28;20028;-84
2024/01/17 06:41:09;;;;;;;2.20;2.00;;;;;;;;;;5071253;28;20484;-82
2024/01/17 06:43:35;;;;;;;2.10;2.00;;;;;;;;;;5071354;28;20035;-82
2024/01/17 06:46:02;;;;;;;2.30;2.10;;;;;;;;;;5071548;28;20047;-83
2024/01/17 06:48:28;;;;;;;2.20;2.00;;;;;;;;;;5071478;28;20533;-85
2024/01/17 06:50:54;;;;;;;1.83;1.73;;;;;;;;;;5071544;28;20107;-84
2024/01/17 06:53:21;;;;;;;2.13;1.92;;;;;;;;;;5072360;28;20036;-84
2024/01/17 06:55:47;;;;;;;2.10;1.90;;;;;;;;;;5078105;28;20103;-85
2024/01/17 06:58:13;;;;;;;2.30;2.10;;;;;;;;;;5091594;28;20082;-83
2024/01/17 07:00:40;;;;;;;2.10;2.00;;;;;;;;;;5091508;28;20537;-85
2024/01/17 07:03:07;;;;;;;2.10;1.90;;;;;;;;;;5081328;28;20021;-82
2024/01/17 07:05:33;;;;;;;2.15;1.95;;;;;;;;;;5058869;28;20021;-83
2024/01/17 07:07:59;;;;;;;1.80;1.70;;;;;;;;;;5060893;28;20098;-85
2024/01/17 07:10:25;;;;;;;1.90;1.80;;;;;;;;;;5067859;28;20488;-83
2024/01/17 07:12:51;;;;;;;1.90;1.80;;;;;;;;;;5072480;28;20048;-85
2024/01/17 07:15:17;;;;;;;2.10;1.90;;;;;;;;;;5070463;28;20024;-85
2024/01/17 07:17:43;;;;;;;2.10;1.90;;;;;;;;;;5069650;28;20522;-86
2024/01/17 07:20:10;;;;;;;1.90;1.80;;;;;;;;;;5069832;28;20027;-86
2024/01/17 07:22:42;;;;;;;2.03;1.92;;;;;;;;;;5068550;28;20024;-84
2024/01/17 07:25:13;;;;;;;1.85;1.75;;;;;;;;;;5070772;28;20021;-83
2024/01/17 07:27:40;;;;;;;2.10;2.00;;;;;;;;;;5070568;28;20032;-86
2024/01/17 07:30:06;;;;;;;1.77;1.67;;;;;;;;;;5070548;28;20488;-86
2024/01/17 07:32:32;;;;;;;1.95;1.83;;;;;;;;;;5070680;28;20025;-84
2024/01/17 07:34:58;;;;;;;2.00;1.90;;;;;;;;;;5070668;28;20027;-85
2024/01/17 07:37:24;;;;;;;2.25;2.00;;;;;;;;;;5069351;28;20021;-83
2024/01/17 07:39:50;;;;;;;3.38;3.00;;;;;;;;;;5071104;28;20028;-83
2024/01/17 07:42:18;;;;;;;10.15;6.63;;;;;;;;;;5070487;28;20029;-85
2024/01/17 07:44:44;;;;;;;7.97;3.95;;;;;;;;;;5070373;28;20484;-83
2024/01/17 07:47:10;;;;;;;5.20;4.50;;;;;;;;;;5069643;28;20040;-82
2024/01/17 07:49:38;;;;;;;4.03;3.47;;;;;;;;;;5082904;28;20078;-84
2024/01/17 07:52:04;;;;;;;3.20;2.90;;;;;;;;;;5090717;28;20090;-84
2024/01/17 07:54:31;;;;;;;2.78;2.50;;;;;;;;;;5090352;28;20293;-85
2024/01/17 07:56:57;;;;;;;3.28;2.97;;;;;;;;;;5082527;28;20016;-84
2024/01/17 07:59:23;;;;;;;3.42;3.13;;;;;;;;;;5071143;28;20032;-83
2024/01/17 08:01:49;;;;;;;3.50;3.20;;;;;;;;;;5068857;28;20489;-85
2024/01/17 08:04:16;;;;;;;3.42;3.13;;;;;;;;;;5064416;28;20028;-80
2024/01/17 08:06:43;;;;;;;3.10;2.80;;;;;;;;;;5068969;28;20016;-82
2024/01/17 08:09:20;;;;;;;3.85;3.40;;;;;;;;;;5069635;28;20025;-82
2024/01/17 08:11:47;;;;;;;3.50;3.20;;;;;;;;;;5069416;28;20025;-82
2024/01/17 08:14:13;;;;;;;3.78;3.42;;;;;;;;;;5069331;28;20039;-81
2024/01/17 08:16:39;;;;;;;6.38;4.60;;;;;;;;;;5068905;28;20017;-81
2024/01/17 08:19:06;;;;;;;3.53;2.70;;;;;;;;;;5069682;28;20051;-81
2024/01/17 08:21:31;;;;;;;7.95;3.67;;;;;;;;;;5069478;28;20477;-81
2024/01/17 08:23:59;;;;;;;5.65;3.38;;;;;;;;;;5069472;28;20090;-82
2024/01/17 08:26:26;;;;;;;11.05;9.18;;;;;;;;;;5068895;28;20031;-81
2024/01/17 08:28:52;;;;;;;4.70;2.90;;;;;;;;;;5070108;28;20032;-81
2024/01/17 08:31:18;;;;;;;4.07;3.38;;;;;;;;;;5069243;28;20031;-82
2024/01/17 08:33:44;;;;;;;9.32;5.55;;;;;;;;;;5068939;28;20546;-82
2024/01/17 08:36:12;;;;;;;6.10;3.47;;;;;;;;;;5068950;28;20078;-81
2024/01/17 08:38:38;;;;;;;3.30;3.00;;;;;;;;;;5068772;28;20032;-81
2024/01/17 08:41:04;;;;;;;3.17;2.88;;;;;;;;;;5069338;28;20468;-81
2024/01/17 08:43:30;;;;;;;5.03;3.33;;;;;;;;;;5069361;28;20021;-81
2024/01/17 08:45:56;;;;;;;8.20;5.50;;;;;;;;;;5069570;28;20027;-83
2024/01/17 08:48:22;;;;;;;10.07;4.55;;;;;;;;;;5069141;28;20107;-81
2024/01/17 08:50:48;;;;;;;4.15;3.58;;;;;;;;;;5067868;28;20073;-81
2024/01/17 08:53:15;;;;;;;4.40;3.58;;;;;;;;;;5069004;28;20438;-82
2024/01/17 08:55:41;;;;;;;5.00;3.53;;;;;;;;;;5069048;28;20496;-81
2024/01/17 08:58:07;;;;;;;5.25;3.88;;;;;;;;;;5068630;28;20031;-80
2024/01/17 09:00:33;;;;;;;4.03;3.65;;;;;;;;;;5067821;28;20048;-81
2024/01/17 09:02:59;;;;;;;3.22;2.92;;;;;;;;;;5068240;28;20020;-81
2024/01/17 09:05:25;;;;;;;4.50;3.08;;;;;;;;;;5069671;28;20028;-80
2024/01/17 09:07:51;;;;;;;3.95;3.60;;;;;;;;;;5068661;28;20396;-80
2024/01/17 09:10:17;;;;;;;3.22;2.90;;;;;;;;;;5068514;28;20273;-83
2024/01/17 09:12:44;;;;;;;3.13;2.85;;;;;;;;;;5067004;28;20090;-83
2024/01/17 09:15:11;;;;;;;3.50;3.20;;;;;;;;;;5068741;28;20028;-81
2024/01/17 09:17:37;;;;;;;4.20;3.67;;;;;;;;;;5079796;28;20028;-80
2024/01/17 09:20:06;;;;;;;3.35;2.50;;;;;;;;;;5088949;28;20031;-82
2024/01/17 09:22:32;;;;;;;3.08;2.78;;;;;;;;;;5088929;28;20020;-80
2024/01/17 09:25:02;;;;;;;3.15;2.92;;;;;;;;;;5088970;28;20034;-80
2024/01/17 09:27:28;;;;;;;2.50;2.13;;;;;;;;;;5088486;28;20600;-80
2024/01/17 09:29:54;;;;;;;1.92;1.83;;;;;;;;;;5089244;28;20051;-81
2024/01/17 09:32:20;;;;;;;4.70;2.17;;;;;;;;;;5088644;28;20539;-81
2024/01/17 09:34:50;;;;;;;2.40;2.20;;;;;;;;;;5088636;28;20088;-81
2024/01/17 09:37:16;;;;;;;2.60;2.40;;;;;;;;;;5080624;28;20024;-81
2024/01/17 09:39:43;;;;;;;3.45;2.15;;;;;;;;;;5068422;28;20031;-83
2024/01/17 09:42:10;;;;;;;2.50;2.30;;;;;;;;;;5068002;28;20021;-83
2024/01/17 09:44:36;;;;;;;2.35;2.10;;;;;;;;;;5068053;28;20020;-82
2024/01/17 09:47:04;;;;;;;2.50;2.30;;;;;;;;;;5072058;28;20060;-81
2024/01/17 09:49:30;;;;;;;2.35;2.08;;;;;;;;;;5081542;28;20107;-83
2024/01/17 09:51:56;;;;;;;2.47;2.15;;;;;;;;;;5093588;28;20063;-80
2024/01/17 09:54:25;;;;;;;2.13;2.03;;;;;;;;;;5092456;28;20028;-82
2024/01/17 09:56:52;;;;;;;2.20;2.10;;;;;;;;;;5083712;28;20464;-82
2024/01/17 09:59:23;;;;;;;2.00;1.90;;;;;;;;;;5072201;28;20025;-82
2024/01/17 10:01:49;;;;;;;2.25;2.05;;;;;;;;;;5072249;28;20028;-81
2024/01/17 10:04:15;;;;;;;2.17;2.08;;;;;;;;;;5071380;28;20025;-84
2024/01/17 10:06:45;;;;;;;3.90;2.00;;;;;;;;;;5071564;28;20574;-81
2024/01/17 10:09:11;;;;;;;2.00;1.90;;;;;;;;;;5071745;28;20025;-82
2024/01/17 10:11:38;;;;;;;2.30;2.10;;;;;;;;;;5071819;28;20056;-84
2024/01/17 10:14:04;;;;;;;2.60;2.00;;;;;;;;;;5071600;28;20029;-84
2024/01/17 10:16:31;;;;;;;3.95;2.13;;;;;;;;;;5072458;28;20419;-84
2024/01/17 10:18:58;;;;;;;2.75;2.10;;;;;;;;;;5071319;28;20442;-83
2024/01/17 10:21:24;;;;;;;2.20;2.00;;;;;;;;;;5071981;28;20020;-83
2024/01/17 10:23:50;;;;;;;1.90;1.80;;;;;;;;;;5071931;28;20028;-83
2024/01/17 10:26:16;;;;;;;2.00;1.90;;;;;;;;;;5071384;28;20388;-82
2024/01/17 10:28:42;;;;;;;2.40;2.20;;;;;;;;;;5071169;28;20038;-81
2024/01/17 10:31:11;;;;;;;1.95;1.85;;;;;;;;;;5071306;28;20029;-82
2024/01/17 10:33:39;;;;;;;4.10;2.10;;;;;;;;;;5071401;28;20029;-81
2024/01/17 10:36:05;;;;;;;2.50;2.30;;;;;;;;;;5071470;28;20400;-81
2024/01/17 10:38:32;;;;;;;4.25;3.85;;;;;;;;;;5072088;28;20035;-83
2024/01/17 10:41:05;;;;;;;3.90;3.05;;;;;;;;;;5072047;28;20033;-81
2024/01/17 10:43:31;;;;;;;5.68;3.65;;;;;;;;;;5070891;28;20035;-81
2024/01/17 10:45:57;;;;;;;4.25;3.53;;;;;;;;;;5071709;28;20033;-81
2024/01/17 10:48:24;;;;;;;3.30;3.00;;;;;;;;;;5086174;28;20028;-80
2024/01/17 10:50:51;;;;;;;4.78;3.35;;;;;;;;;;5073290;28;20149;-81
2024/01/17 10:53:18;;;;;;;2.40;2.20;;;;;;;;;;5071339;28;20040;-83
2024/01/17 10:55:46;;;;;;;4.03;3.60;;;;;;;;;;5070479;28;20016;-82
2024/01/17 10:58:14;;;;;;;13.02;6.55;;;;;;;;;;5069655;28;20174;-80
2024/01/17 11:00:44;;;;;;;5.53;4.10;;;;;;;;;;5070539;28;20025;-82
2024/01/17 11:03:14;;;;;;;7.85;5.95;;;;;;;;;;5071307;28;20024;-84
2024/01/17 11:05:49;;;;;;;7.50;5.53;;;;;;;;;;5071151;28;20024;-83
2024/01/17 11:08:16;;;;;;;4.20;3.55;;;;;;;;;;5084431;28;20028;-82
2024/01/17 11:10:43;;;;;;;4.28;3.85;;;;;;;;;;5091537;28;20059;-82
2024/01/17 11:13:10;;;;;;;3.07;2.77;;;;;;;;;;5091327;28;20028;-82
2024/01/17 11:15:38;;;;;;;6.20;4.80;;;;;;;;;;5091343;28;20028;-81
2024/01/17 11:18:05;;;;;;;3.42;2.30;;;;;;;;;;5078043;28;20086;-82
2024/01/17 11:20:31;;;;;;;7.20;4.93;;;;;;;;;;5071793;28;20033;-83
2024/01/17 11:22:57;;;;;;;3.38;3.08;;;;;;;;;;5070954;28;20097;-82
2024/01/17 11:25:26;;;;;;;2.42;2.22;;;;;;;;;;5070860;28;20492;-82
2024/01/17 11:28:17;;;;;;;3.10;2.80;;;;;;;;;;5070723;28;20032;-82
2024/01/17 11:31:01;;;;;;;3.08;2.58;;;;;;;;;;5070775;28;20025;-82
2024/01/17 11:33:30;;;;;;;2.50;2.30;;;;;;;;;;5070705;28;20063;-83
2024/01/17 11:35:56;;;;;;;3.38;3.08;;;;;;;;;;5070732;28;20074;-82
2024/01/17 11:38:25;;;;;;;3.80;3.40;;;;;;;;;;5070375;28;20024;-82
2024/01/17 11:40:58;;;;;;;3.40;3.00;;;;;;;;;;5088372;28;20060;-82
2024/01/17 11:43:31;;;;;;;3.60;3.30;;;;;;;;;;5090238;28;20035;-82
2024/01/17 11:45:59;;;;;;;4.60;4.10;;;;;;;;;;5070533;28;20028;-84
2024/01/17 11:48:26;;;;;;;3.63;3.28;;;;;;;;;;5070552;28;20708;-82
2024/01/17 11:51:08;;;;;;;3.38;3.08;;;;;;;;;;5070358;28;20111;-82
2024/01/17 11:53:37;;;;;;;2.83;2.58;;;;;;;;;;5071031;28;20410;-81
2024/01/17 11:56:04;;;;;;;1.65;1.55;;;;;;;;;;5084309;28;20030;-82
2024/01/17 11:58:41;;;;;;;2.45;2.20;;;;;;;;;;5069267;28;20446;-81
2024/01/17 12:01:23;;;;;;;2.47;2.28;;;;;;;;;;5070175;28;20024;-82
2024/01/17 12:03:51;;;;;;;3.95;3.38;;;;;;;;;;5070059;28;20086;-84
2024/01/17 12:06:17;;;;;;;;;;;;;;;;;;5070498;28;20039;-82
2024/01/17 12:08:44;;;;;;;2.22;2.05;;;;;;;;;;5076442;28;19913;-82
2024/01/17 12:11:10;;;;;;;4.20;3.80;;;;;;;;;;5072483;28;20031;-83
2024/01/17 12:13:37;;;;;;;2.67;2.47;;;;;;;;;;5070413;28;20064;-82
2024/01/17 12:16:04;;;;;;;4.15;3.60;;;;;;;;;;5070677;28;20396;-83
2024/01/17 12:18:31;;;;;;;2.22;2.08;;;;;;;;;;5069867;28;20017;-84
2024/01/17 12:21:02;;;;;;;3.30;3.03;;;;;;;;;;5069756;28;20825;-82
2024/01/17 12:23:29;;;;;;;3.85;3.55;;;;;;;;;;5069658;28;20396;-82
2024/01/17 12:25:55;;;;;;;3.20;2.90;;;;;;;;;;5069692;28;20024;-83
2024/01/17 12:28:24;;;;;;;1.90;1.80;;;;;;;;;;5069592;28;20082;-82
2024/01/17 12:31:05;;;;;;;1.73;1.63;;;;;;;;;;5069691;28;20104;-82
2024/01/17 12:33:33;;;;;;;1.60;1.50;;;;;;;;;;5069260;28;20032;-82
2024/01/17 12:36:03;;;;;;;3.30;3.00;;;;;;;;;;5069538;28;20077;-82
2024/01/17 12:38:30;;;;;;;2.70;2.50;;;;;;;;;;5069860;28;20017;-82
2024/01/17 12:40:57;;;;;;;1.10;1.10;;;;;;;;;;5069531;28;20032;-82
2024/01/17 12:43:23;;;;;;;1.73;1.40;;;;;;;;;;5069441;28;20016;-82
2024/01/17 12:45:50;;;;;;;1.40;1.30;;;;;;;;;;5072400;28;20031;-82
2024/01/17 12:48:16;;;;;;;1.75;1.65;;;;;;;;;;5089536;28;20027;-84
2024/01/17 12:50:46;;;;;;;1.80;1.70;;;;;;;;;;5089577;28;20051;-82
2024/01/17 12:53:12;;;;;;;2.05;1.95;;;;;;;;;;5089437;28;20031;-83
2024/01/17 12:55:39;;;;;;;3.10;2.10;;;;;;;;;;5071247;28;20036;-82
2024/01/17 12:58:05;;;;;;;1.73;1.63;;;;;;;;;;5090436;28;20020;-83
2024/01/17 13:00:32;;;;;;;1.90;1.80;;;;;;;;;;5089319;28;20142;-82
2024/01/17 13:02:58;;;;;;;1.80;1.70;;;;;;;;;;5089338;28;20416;-83
2024/01/17 13:05:24;;;;;;;2.92;2.08;;;;;;;;;;5071909;28;20067;-82
2024/01/17 13:07:50;;;;;;;2.33;2.13;;;;;;;;;;5069172;28;20024;-83
2024/01/17 13:10:21;;;;;;;2.50;2.30;;;;;;;;;;5069108;28;20099;-83
2024/01/17 13:12:47;;;;;;;6.82;4.80;;;;;;;;;;5069034;28;20060;-82
2024/01/17 13:15:14;;;;;;;6.35;5.25;;;;;;;;;;5068575;28;20492;-83
2024/01/17 13:17:48;;;;;;;5.35;4.70;;;;;;;;;;5069273;28;20025;-81
2024/01/17 13:20:18;;;;;;;2.78;2.40;;;;;;;;;;5067539;28;20035;-82
2024/01/17 13:22:44;;;;;;;6.85;5.85;;;;;;;;;;5067587;28;20031;-81
2024/01/17 13:25:10;;;;;;;7.00;6.28;;;;;;;;;;5069257;28;20028;-81
2024/01/17 13:27:36;;;;;;;9.07;7.13;;;;;;;;;;5087192;28;20056;-81
2024/01/17 13:30:03;;;;;;;9.82;8.57;;;;;;;;;;5088992;28;20055;-81
2024/01/17 13:32:33;;;;;;;5.03;4.53;;;;;;;;;;5089134;28;20451;-82
2024/01/17 13:35:00;;;;;;;3.38;3.08;;;;;;;;;;5076065;28;20089;-84
2024/01/17 13:37:26;;;;;;;2.80;2.42;;;;;;;;;;5068766;28;20143;-81
2024/01/17 13:39:52;;;;;;;4.85;2.42;;;;;;;;;;5068767;28;20028;-81
2024/01/17 13:42:19;;;;;;;2.63;2.42;;;;;;;;;;5068676;28;20066;-82
2024/01/17 13:44:45;;;;;;;2.60;2.25;;;;;;;;;;5068687;28;20051;-81
2024/01/17 13:47:11;;;;;;;3.08;2.47;;;;;;;;;;5069137;28;20396;-81
2024/01/17 13:49:39;;;;;;;3.45;3.00;;;;;;;;;;5068049;28;20486;-82
2024/01/17 13:52:05;;;;;;;3.85;2.30;;;;;;;;;;5068735;28;20074;-81
2024/01/17 13:54:31;;;;;;;3.03;2.72;;;;;;;;;;5068086;28;20067;-81
2024/01/17 13:56:58;;;;;;;3.17;2.88;;;;;;;;;;5068206;28;20500;-81
2024/01/17 13:59:23;;;;;;;5.95;4.68;;;;;;;;;;5068617;28;20488;-81
2024/01/17 14:01:50;;;;;;;5.22;3.10;;;;;;;;;;5068622;28;20086;-80
2024/01/17 14:04:16;;;;;;;4.05;3.05;;;;;;;;;;5067017;28;20017;-81
2024/01/17 14:06:42;;;;;;;3.20;2.45;;;;;;;;;;5069368;28;20082;-81
2024/01/17 14:09:08;;;;;;;2.17;2.08;;;;;;;;;;5069289;28;20381;-81
2024/01/17 14:11:40;;;;;;;3.90;3.38;;;;;;;;;;5067087;28;20028;-81
2024/01/17 14:14:06;;;;;;;4.25;3.72;;;;;;;;;;5068210;28;20040;-82
2024/01/17 14:16:32;;;;;;;7.40;5.03;;;;;;;;;;5068433;28;20028;-81
2024/01/17 14:18:58;;;;;;;4.60;3.85;;;;;;;;;;5068404;28;20064;-81
2024/01/17 14:21:24;;;;;;;14.60;8.73;;;;;;;;;;5068410;28;20488;-84
2024/01/17 14:23:50;;;;;;;8.35;5.38;;;;;;;;;;5068118;28;20104;-84
2024/01/17 14:26:18;;;;;;;8.45;6.38;;;;;;;;;;5068257;28;20111;-84
2024/01/17 14:28:46;;;;;;;4.15;3.00;;;;;;;;;;5068283;28;20041;-81
2024/01/17 14:31:13;;;;;;;2.03;1.92;;;;;;;;;;5070225;28;20039;-85
2024/01/17 14:33:39;;;;;;;1.80;1.70;;;;;;;;;;5072421;28;20438;-80
2024/01/17 14:36:06;;;;;;;2.60;2.40;;;;;;;;;;5072060;28;20039;-82
2024/01/17 14:38:32;;;;;;;10.13;8.30;;;;;;;;;;5071718;28;20110;-82
2024/01/17 14:40:58;;;;;;;2.30;2.10;;;;;;;;;;5071936;28;20025;-83